createdAt,value
2019-05-01T00:01:19.005Z,7.30
2019-05-01T00:04:10.135Z,7.30
2019-05-01T00:07:12.446Z,7.30
2019-05-01T00:12:00.757Z,7.30
2019-05-01T00:13:19.735Z,7.30
2019-05-01T00:16:16.010Z,7.20
2019-05-01T00:18:53.953Z,7.20
2019-05-01T00:21:40.867Z,7.10
2019-05-01T00:24:59.067Z,7.10
2019-05-01T00:28:06.365Z,7.00
2019-05-01T00:30:58.265Z,7.00
2019-05-01T00:37:12.287Z,6.80
2019-05-01T00:40:09.941Z,6.70
2019-05-01T00:47:34.300Z,6.70
2019-05-01T00:50:00.500Z,6.60
2019-05-01T00:53:19.057Z,6.50
2019-05-01T00:56:29.067Z,6.50
2019-05-01T00:59:36.955Z,6.50
2019-05-01T01:16:46.796Z,6.40
2019-05-01T01:20:31.767Z,6.30
2019-05-01T01:30:13.894Z,6.10
2019-05-01T01:34:13.173Z,6.00
2019-05-01T01:36:50.268Z,6.10
2019-05-01T01:43:17.954Z,5.90
2019-05-01T01:46:32.926Z,5.90
2019-05-01T01:49:13.649Z,5.90
2019-05-01T01:53:34.226Z,5.80
2019-05-01T01:54:36.253Z,5.80
2019-05-01T01:57:55.210Z,5.80
2019-05-01T02:01:19.982Z,5.70
2019-05-01T02:04:14.230Z,5.70
2019-05-01T02:06:54.234Z,5.70
2019-05-01T02:12:37.668Z,5.60
2019-05-01T02:15:52.854Z,5.60
2019-05-01T02:21:50.557Z,5.60
2019-05-01T02:25:14.559Z,5.60
2019-05-01T02:28:16.545Z,5.60
2019-05-01T02:31:27.259Z,5.50
2019-05-01T02:34:47.161Z,5.50
2019-05-01T02:39:26.331Z,5.40
2019-05-01T02:40:29.324Z,5.40
2019-05-01T02:43:03.077Z,5.40
2019-05-01T02:47:31.849Z,5.40
2019-05-01T02:49:25.367Z,5.40
2019-05-01T02:52:26.455Z,5.30
2019-05-01T02:54:50.350Z,5.30
2019-05-01T02:57:28.640Z,5.20
2019-05-01T03:00:04.335Z,5.20
2019-05-01T03:02:39.741Z,5.20
2019-05-01T03:05:10.070Z,5.10
2019-05-01T03:07:50.013Z,5.10
2019-05-01T03:10:22.683Z,5.00
2019-05-01T03:17:14.773Z,4.90
2019-05-01T03:19:15.989Z,4.80
2019-05-01T03:22:04.544Z,4.70
2019-05-01T03:25:00.573Z,4.70
2019-05-01T03:28:35.195Z,4.70
2019-05-01T03:31:02.836Z,4.60
2019-05-01T03:33:59.214Z,4.60
2019-05-01T03:36:32.611Z,4.50
2019-05-01T03:39:06.362Z,4.60
2019-05-01T03:41:58.201Z,4.60
2019-05-01T03:44:28.212Z,4.60
2019-05-01T03:47:28.699Z,4.50
2019-05-01T03:50:13.241Z,4.50
2019-05-01T03:53:11.810Z,4.50
2019-05-01T03:55:38.604Z,4.40
2019-05-01T03:58:11.969Z,4.40
2019-05-01T04:01:26.044Z,4.40
2019-05-01T04:04:30.680Z,4.40
2019-05-01T04:09:58.241Z,4.40
2019-05-01T04:13:18.523Z,4.40
2019-05-01T04:17:04.326Z,4.40
2019-05-01T04:18:16.562Z,4.40
2019-05-01T04:21:25.773Z,4.40
2019-05-01T04:23:44.238Z,4.50
2019-05-01T04:26:58.451Z,4.50
2019-05-01T04:29:59.081Z,4.50
2019-05-01T04:32:31.401Z,4.60
2019-05-01T04:35:28.462Z,4.70
2019-05-01T04:38:06.857Z,4.80
2019-05-01T04:44:07.116Z,4.90
2019-05-01T04:49:41.679Z,5.10
2019-05-01T04:50:19.478Z,5.00
2019-05-01T04:52:43.351Z,5.20
2019-05-01T04:55:23.961Z,5.30
2019-05-01T04:58:00.487Z,5.40
2019-05-01T05:03:45.053Z,5.60
2019-05-01T05:06:15.219Z,5.70
2019-05-01T05:10:26.547Z,5.80
2019-05-01T05:11:48.228Z,6.00
2019-05-01T05:19:14.957Z,6.30
2019-05-01T05:21:28.196Z,6.40
2019-05-01T05:23:41.082Z,6.30
2019-05-01T05:26:10.778Z,6.60
2019-05-01T05:28:40.687Z,6.60
2019-05-01T05:31:10.961Z,6.80
2019-05-01T05:33:42.230Z,6.80
2019-05-01T05:36:14.026Z,7.00
2019-05-01T05:39:07.551Z,7.00
2019-05-01T05:41:38.966Z,7.20
2019-05-01T05:44:08.716Z,7.50
2019-05-01T05:46:38.198Z,7.70
2019-05-01T05:49:07.832Z,7.80
2019-05-01T05:51:44.421Z,7.90
2019-05-01T05:54:33.370Z,8.40
2019-05-01T05:57:12.368Z,8.80
2019-05-01T05:59:46.938Z,9.30
2019-05-01T06:02:30.952Z,9.50
2019-05-01T06:05:25.242Z,9.90
2019-05-01T06:08:15.024Z,10.60
2019-05-01T06:11:05.490Z,11.00
2019-05-01T06:14:12.408Z,11.50
2019-05-01T06:16:54.767Z,11.20
2019-05-01T06:19:49.754Z,11.90
2019-05-01T06:22:24.069Z,12.10
2019-05-01T06:24:59.479Z,12.50
2019-05-01T06:27:29.378Z,12.50
2019-05-01T06:30:00.928Z,13.00
2019-05-01T06:32:33.622Z,12.80
2019-05-01T06:35:02.986Z,13.30
2019-05-01T06:37:56.055Z,13.70
2019-05-01T06:40:38.615Z,13.80
2019-05-01T06:43:14.314Z,14.30
2019-05-01T06:45:51.676Z,14.60
2019-05-01T06:48:20.601Z,14.90
2019-05-01T06:50:56.287Z,15.20
2019-05-01T06:53:26.555Z,15.10
2019-05-01T06:55:56.362Z,15.30
2019-05-01T06:58:26.130Z,15.60
2019-05-01T07:00:55.774Z,15.80
2019-05-01T07:03:25.479Z,16.00
2019-05-01T07:05:56.279Z,16.30
2019-05-01T07:08:29.442Z,16.80
2019-05-01T07:10:57.571Z,16.80
2019-05-01T07:13:27.125Z,17.40
2019-05-01T07:15:58.697Z,18.00
2019-05-01T07:18:29.128Z,17.60
2019-05-01T07:20:58.783Z,17.60
2019-05-01T07:23:28.524Z,17.90
2019-05-01T07:25:58.116Z,17.60
2019-05-01T07:28:34.085Z,17.50
2019-05-01T07:31:05.205Z,16.50
2019-05-01T07:33:34.234Z,17.20
2019-05-01T07:36:06.967Z,18.30
2019-05-01T07:38:38.882Z,17.20
2019-05-01T07:41:12.186Z,17.00
2019-05-01T07:43:59.687Z,17.40
2019-05-01T07:46:34.776Z,17.70
2019-05-01T07:49:04.875Z,18.70
2019-05-01T07:51:37.796Z,19.40
2019-05-01T07:54:09.494Z,19.80
2019-05-01T07:56:38.981Z,19.90
2019-05-01T07:59:10.557Z,19.60
2019-05-01T08:01:49.889Z,19.30
2019-05-01T08:04:35.302Z,19.70
2019-05-01T08:06:52.015Z,20.00
2019-05-01T08:09:21.967Z,20.30
2019-05-01T08:11:51.397Z,20.30
2019-05-01T08:14:20.829Z,21.10
2019-05-01T08:16:50.385Z,21.50
2019-05-01T08:19:34.777Z,21.10
2019-05-01T08:22:11.289Z,20.80
2019-05-01T08:24:40.822Z,21.70
2019-05-01T08:27:20.243Z,22.20
2019-05-01T08:30:05.785Z,22.00
2019-05-01T08:32:48.555Z,20.20
2019-05-01T08:35:19.724Z,21.30
2019-05-01T08:37:49.194Z,21.60
2019-05-01T08:40:20.554Z,22.00
2019-05-01T08:42:49.958Z,22.50
2019-05-01T08:45:40.801Z,23.20
2019-05-01T08:48:37.591Z,23.60
2019-05-01T08:51:07.045Z,22.80
2019-05-01T08:53:36.546Z,23.30
2019-05-01T08:56:06.075Z,23.30
2019-05-01T08:58:35.543Z,23.40
2019-05-01T09:01:05.702Z,23.80
2019-05-01T09:03:35.167Z,24.40
2019-05-01T09:06:04.730Z,24.10
2019-05-01T09:08:34.218Z,24.60
2019-05-01T09:11:03.735Z,24.20
2019-05-01T09:13:33.215Z,24.20
2019-05-01T09:16:05.069Z,24.00
2019-05-01T09:18:34.521Z,24.10
2019-05-01T09:21:04.016Z,23.40
2019-05-01T09:23:34.580Z,22.70
2019-05-01T09:26:31.978Z,22.10
2019-05-01T09:29:05.092Z,20.90
2019-05-01T09:31:35.552Z,21.60
2019-05-01T09:34:05.803Z,22.50
2019-05-01T09:36:35.553Z,22.70
2019-05-01T09:39:06.437Z,22.20
2019-05-01T09:41:38.568Z,21.40
2019-05-01T09:44:10.777Z,21.50
2019-05-01T09:46:38.610Z,20.40
2019-05-01T09:49:08.328Z,19.80
2019-05-01T09:51:56.760Z,19.60
2019-05-01T09:54:42.956Z,19.80
2019-05-01T09:57:10.176Z,20.50
2019-05-01T09:59:39.718Z,21.20
2019-05-01T10:02:09.511Z,21.80
2019-05-01T10:04:39.057Z,21.40
2019-05-01T10:07:09.057Z,22.10
2019-05-01T10:09:38.550Z,21.60
2019-05-01T10:12:11.464Z,22.70
2019-05-01T10:14:39.155Z,23.60
2019-05-01T10:17:08.673Z,23.80
2019-05-01T10:19:38.327Z,22.00
2019-05-01T10:22:07.872Z,21.70
2019-05-01T10:24:39.233Z,21.40
2019-05-01T10:27:10.342Z,21.10
2019-05-01T10:30:10.694Z,20.90
2019-05-01T10:32:43.205Z,20.60
2019-05-01T10:35:42.468Z,20.40
2019-05-01T10:38:04.727Z,20.10
2019-05-01T10:40:35.273Z,20.00
2019-05-01T10:43:04.886Z,20.00
2019-05-01T10:45:34.481Z,19.40
2019-05-01T10:48:04.060Z,19.50
2019-05-01T10:50:33.547Z,20.00
2019-05-01T10:53:03.009Z,20.00
2019-05-01T10:55:32.520Z,19.70
2019-05-01T10:58:03.420Z,19.50
2019-05-01T11:00:33.796Z,19.60
2019-05-01T11:03:03.250Z,19.60
2019-05-01T11:05:32.753Z,19.70
2019-05-01T11:08:02.322Z,19.50
2019-05-01T11:10:31.829Z,19.50
2019-05-01T11:13:01.423Z,19.70
2019-05-01T11:15:30.908Z,20.10
2019-05-01T11:18:00.494Z,21.60
2019-05-01T11:20:30.001Z,22.90
2019-05-01T11:22:59.533Z,23.00
2019-05-01T11:25:29.302Z,23.10
2019-05-01T11:27:59.014Z,24.40
2019-05-01T11:30:28.493Z,24.20
2019-05-01T11:33:19.240Z,23.60
2019-05-01T11:36:13.567Z,23.00
2019-05-01T11:39:04.670Z,22.50
2019-05-01T11:41:51.474Z,21.90
2019-05-01T11:44:21.053Z,21.10
2019-05-01T11:46:50.489Z,21.00
2019-05-01T11:49:19.828Z,21.10
2019-05-01T11:51:49.171Z,21.20
2019-05-01T11:54:18.546Z,20.90
2019-05-01T11:56:48.103Z,20.60
2019-05-01T11:59:17.580Z,20.60
2019-05-01T12:01:47.007Z,20.90
2019-05-01T12:04:16.389Z,21.70
2019-05-01T12:06:45.730Z,22.30
2019-05-01T12:09:15.259Z,22.30
2019-05-01T12:11:46.287Z,22.80
2019-05-01T12:14:15.795Z,22.30
2019-05-01T12:17:16.422Z,21.50
2019-05-01T12:19:45.882Z,21.70
2019-05-01T12:22:15.336Z,21.30
2019-05-01T12:24:44.785Z,19.80
2019-05-01T12:27:14.197Z,20.00
2019-05-01T12:29:43.559Z,20.60
2019-05-01T12:32:13.051Z,21.00
2019-05-01T12:34:42.492Z,21.60
2019-05-01T12:37:17.979Z,21.10
2019-05-01T12:39:47.392Z,21.30
2019-05-01T12:42:17.840Z,22.30
2019-05-01T12:44:47.221Z,22.50
2019-05-01T12:47:34.533Z,21.70
2019-05-01T12:50:04.183Z,21.70
2019-05-01T12:52:52.429Z,21.50
2019-05-01T12:55:28.454Z,21.00
2019-05-01T12:57:57.852Z,20.50
2019-05-01T13:00:41.409Z,20.40
2019-05-01T13:03:11.235Z,20.30
2019-05-01T13:05:40.674Z,20.30
2019-05-01T13:08:10.067Z,20.10
2019-05-01T13:10:39.462Z,20.30
2019-05-01T13:13:11.118Z,20.40
2019-05-01T13:15:40.027Z,20.50
2019-05-01T13:18:09.453Z,20.50
2019-05-01T13:20:38.798Z,21.20
2019-05-01T13:23:08.325Z,20.50
2019-05-01T13:25:37.796Z,20.40
2019-05-01T13:28:26.132Z,19.80
2019-05-01T13:31:02.363Z,20.60
2019-05-01T13:33:31.859Z,21.10
2019-05-01T13:36:01.422Z,20.90
2019-05-01T13:38:30.806Z,21.20
2019-05-01T13:41:00.213Z,21.40
2019-05-01T13:43:29.744Z,21.00
2019-05-01T13:45:59.267Z,21.30
2019-05-01T13:48:28.820Z,22.10
2019-05-01T13:50:58.430Z,23.00
2019-05-01T13:53:27.986Z,22.80
2019-05-01T13:55:58.182Z,22.80
2019-05-01T13:58:27.681Z,21.50
2019-05-01T14:00:57.172Z,20.60
2019-05-01T14:03:30.442Z,20.70
2019-05-01T14:06:00.756Z,21.60
2019-05-01T14:08:30.388Z,22.90
2019-05-01T14:11:03.661Z,23.30
2019-05-01T14:13:33.112Z,21.70
2019-05-01T14:16:02.587Z,21.30
2019-05-01T14:18:32.036Z,21.00
2019-05-01T14:21:16.052Z,20.90
2019-05-01T14:24:04.402Z,20.70
2019-05-01T14:26:34.242Z,20.40
2019-05-01T14:29:03.862Z,20.40
2019-05-01T14:31:33.247Z,20.30
2019-05-01T14:34:02.713Z,20.20
2019-05-01T14:36:32.196Z,19.70
2019-05-01T14:39:02.724Z,19.00
2019-05-01T14:41:32.092Z,19.20
2019-05-01T14:44:01.555Z,19.60
2019-05-01T14:46:30.949Z,19.90
2019-05-01T14:49:00.320Z,19.90
2019-05-01T14:51:29.775Z,20.00
2019-05-01T14:53:59.277Z,20.00
2019-05-01T14:56:28.684Z,19.70
2019-05-01T14:58:58.083Z,19.70
2019-05-01T15:01:27.416Z,19.50
2019-05-01T15:03:56.806Z,19.40
2019-05-01T15:06:26.288Z,19.30
2019-05-01T15:08:55.751Z,19.30
2019-05-01T15:11:25.174Z,19.30
2019-05-01T15:14:02.745Z,19.20
2019-05-01T15:16:46.778Z,19.30
2019-05-01T15:19:18.784Z,19.20
2019-05-01T15:21:48.230Z,19.20
2019-05-01T15:24:17.567Z,18.90
2019-05-01T15:26:47.339Z,18.80
2019-05-01T15:29:16.851Z,18.70
2019-05-01T15:31:46.269Z,18.30
2019-05-01T15:34:15.677Z,18.20
2019-05-01T15:36:45.175Z,18.10
2019-05-01T15:39:22.057Z,18.00
2019-05-01T15:42:13.973Z,18.20
2019-05-01T15:44:44.734Z,18.00
2019-05-01T15:47:14.397Z,18.10
2019-05-01T15:49:44.172Z,18.40
2019-05-01T15:52:13.678Z,18.30
2019-05-01T15:54:43.113Z,18.50
2019-05-01T15:57:12.549Z,18.50
2019-05-01T15:59:41.987Z,18.60
2019-05-01T16:02:11.490Z,18.50
2019-05-01T16:04:40.891Z,18.50
2019-05-01T16:07:10.277Z,18.20
2019-05-01T16:09:39.785Z,18.20
2019-05-01T16:12:27.061Z,18.20
2019-05-01T16:14:56.524Z,18.10
2019-05-01T16:17:25.938Z,18.10
2019-05-01T16:19:55.347Z,18.10
2019-05-01T16:22:24.933Z,18.10
2019-05-01T16:24:54.386Z,18.10
2019-05-01T16:27:23.823Z,17.90
2019-05-01T16:29:53.323Z,17.90
2019-05-01T16:32:22.749Z,17.80
2019-05-01T16:34:52.166Z,17.60
2019-05-01T16:37:21.602Z,17.40
2019-05-01T16:40:16.058Z,17.30
2019-05-01T16:42:45.582Z,17.40
2019-05-01T16:45:15.593Z,17.40
2019-05-01T16:47:45.021Z,17.30
2019-05-01T16:50:14.695Z,17.30
2019-05-01T16:52:44.514Z,17.30
2019-05-01T16:55:14.993Z,17.30
2019-05-01T16:57:44.528Z,17.20
2019-05-01T17:00:14.863Z,17.20
2019-05-01T17:03:10.642Z,17.10
2019-05-01T17:06:05.178Z,17.20
2019-05-01T17:08:41.059Z,17.20
2019-05-01T17:11:11.398Z,17.20
2019-05-01T17:13:41.007Z,17.20
2019-05-01T17:16:10.749Z,17.20
2019-05-01T17:18:40.376Z,17.40
2019-05-01T17:21:09.858Z,17.50
2019-05-01T17:23:39.316Z,17.50
2019-05-01T17:26:08.991Z,17.50
2019-05-01T17:28:38.689Z,17.10
2019-05-01T17:31:08.979Z,16.90
2019-05-01T17:33:38.562Z,16.70
2019-05-01T17:36:08.530Z,16.60
2019-05-01T17:38:49.202Z,16.50
2019-05-01T17:41:11.693Z,16.50
2019-05-01T17:43:44.646Z,16.50
2019-05-01T17:46:12.648Z,16.50
2019-05-01T17:48:42.410Z,16.40
2019-05-01T17:51:12.030Z,16.30
2019-05-01T17:53:41.814Z,16.30
2019-05-01T17:56:15.354Z,16.20
2019-05-01T17:58:49.883Z,16.00
2019-05-01T18:01:51.044Z,15.80
2019-05-01T18:04:37.913Z,15.70
2019-05-01T18:07:09.830Z,15.60
2019-05-01T18:09:55.375Z,15.50
2019-05-01T18:12:37.024Z,15.40
2019-05-01T18:15:11.865Z,15.30
2019-05-01T18:17:43.501Z,15.20
2019-05-01T18:20:18.418Z,15.10
2019-05-01T18:23:12.470Z,15.00
2019-05-01T18:25:57.207Z,14.90
2019-05-01T18:28:37.191Z,14.80
2019-05-01T18:31:13.489Z,14.80
2019-05-01T18:33:47.769Z,14.70
2019-05-01T18:36:24.650Z,14.60
2019-05-01T18:39:15.763Z,14.50
2019-05-01T18:41:53.788Z,14.50
2019-05-01T18:44:24.426Z,14.40
2019-05-01T18:47:02.376Z,14.40
2019-05-01T18:49:35.875Z,14.20
2019-05-01T18:52:06.790Z,14.20
2019-05-01T18:54:38.091Z,14.10
2019-05-01T18:57:09.828Z,14.00
2019-05-01T18:59:46.945Z,13.90
2019-05-01T19:02:20.519Z,13.90
2019-05-01T19:04:54.367Z,13.80
2019-05-01T19:07:27.446Z,13.80
2019-05-01T19:10:03.067Z,13.70
2019-05-01T19:12:34.261Z,13.60
2019-05-01T19:15:16.513Z,13.60
2019-05-01T19:17:49.301Z,13.50
2019-05-01T19:20:28.405Z,13.40
2019-05-01T19:23:01.610Z,13.50
2019-05-01T19:25:43.581Z,13.40
2019-05-01T19:28:14.824Z,13.30
2019-05-01T19:30:44.638Z,13.30
2019-05-01T19:33:19.027Z,13.20
2019-05-01T19:35:56.882Z,13.10
2019-05-01T19:38:29.489Z,13.10
2019-05-01T19:41:14.070Z,13.10
2019-05-01T19:43:49.525Z,13.10
2019-05-01T19:46:21.596Z,13.00
2019-05-01T19:49:00.952Z,12.90
2019-05-01T19:51:31.238Z,12.80
2019-05-01T19:54:00.968Z,12.70
2019-05-01T19:56:32.462Z,12.60
2019-05-01T19:59:02.375Z,12.50
2019-05-01T20:01:32.091Z,12.40
2019-05-01T20:04:08.582Z,12.30
2019-05-01T20:06:40.215Z,12.30
2019-05-01T20:09:09.944Z,12.20
2019-05-01T20:11:39.629Z,12.20
2019-05-01T20:14:09.425Z,12.20
2019-05-01T20:16:39.293Z,12.10
2019-05-01T20:19:08.892Z,12.00
2019-05-01T20:21:41.510Z,11.90
2019-05-01T20:24:10.629Z,11.90
2019-05-01T20:26:40.290Z,11.90
2019-05-01T20:29:09.829Z,11.80
2019-05-01T20:31:39.318Z,11.80
2019-05-01T20:34:12.082Z,11.70
2019-05-01T20:36:39.999Z,11.60
2019-05-01T20:39:10.091Z,11.60
2019-05-01T20:41:39.684Z,11.60
2019-05-01T20:44:10.003Z,11.50
2019-05-01T20:46:39.390Z,11.50
2019-05-01T20:49:10.281Z,11.50
2019-05-01T20:51:39.903Z,11.40
2019-05-01T20:54:10.128Z,11.30
2019-05-01T20:56:59.346Z,11.20
2019-05-01T20:59:35.186Z,11.20
2019-05-01T21:02:07.634Z,11.10
2019-05-01T21:04:50.803Z,11.00
2019-05-01T21:07:29.449Z,11.00
2019-05-01T21:09:59.323Z,11.00
2019-05-01T21:12:29.081Z,10.90
2019-05-01T21:14:58.593Z,10.80
2019-05-01T21:17:28.107Z,10.70
2019-05-01T21:19:57.816Z,10.70
2019-05-01T21:22:27.490Z,10.70
2019-05-01T21:24:57.374Z,10.60
2019-05-01T21:27:26.810Z,10.60
2019-05-01T21:29:56.450Z,10.50
2019-05-01T21:32:27.352Z,10.50
2019-05-01T21:34:57.225Z,10.40
2019-05-01T21:37:26.768Z,10.40
2019-05-01T21:39:56.630Z,10.40
2019-05-01T21:42:26.171Z,10.30
2019-05-01T21:44:56.016Z,10.30
2019-05-01T21:47:25.558Z,10.30
2019-05-01T21:49:55.258Z,10.20
2019-05-01T21:52:26.924Z,10.20
2019-05-01T21:54:57.112Z,10.10
2019-05-01T21:57:29.608Z,10.10
2019-05-01T21:59:58.020Z,10.00
2019-05-01T22:02:27.598Z,10.00
2019-05-01T22:04:56.998Z,10.00
2019-05-01T22:07:27.856Z,9.90
2019-05-01T22:09:57.550Z,9.90
2019-05-01T22:12:26.948Z,9.90
2019-05-01T22:14:59.748Z,9.90
2019-05-01T22:17:40.746Z,9.80
2019-05-01T22:20:11.520Z,9.80
2019-05-01T22:22:46.615Z,9.80
2019-05-01T22:25:41.118Z,9.80
2019-05-01T22:28:21.758Z,9.70
2019-05-01T22:31:00.941Z,9.70
2019-05-01T22:33:30.372Z,9.60
2019-05-01T22:35:59.693Z,9.60
2019-05-01T22:38:29.290Z,9.50
2019-05-01T22:41:08.987Z,9.40
2019-05-01T22:43:38.405Z,9.40
2019-05-01T22:46:10.501Z,9.30
2019-05-01T22:48:39.866Z,9.30
2019-05-01T22:51:27.506Z,9.30
2019-05-01T22:53:56.884Z,9.20
2019-05-01T22:56:26.407Z,9.10
2019-05-01T22:58:55.796Z,9.10
2019-05-01T23:01:26.406Z,9.00
2019-05-01T23:04:01.406Z,9.00
2019-05-01T23:06:30.800Z,8.90
2019-05-01T23:09:00.215Z,8.90
2019-05-01T23:11:31.982Z,8.90
2019-05-01T23:14:01.726Z,8.90
2019-05-01T23:16:35.585Z,8.90
2019-05-01T23:19:05.067Z,8.80
2019-05-01T23:21:34.460Z,8.80
2019-05-01T23:24:05.402Z,8.70
2019-05-01T23:26:35.360Z,8.70
2019-05-01T23:29:06.493Z,8.70
2019-05-01T23:31:36.189Z,8.60
2019-05-01T23:34:10.743Z,8.60
2019-05-01T23:36:40.340Z,8.50
2019-05-01T23:39:15.006Z,8.50
2019-05-01T23:41:46.784Z,8.60
2019-05-01T23:44:15.847Z,8.50
2019-05-01T23:46:45.400Z,8.50
2019-05-01T23:49:14.924Z,8.40
2019-05-01T23:51:44.588Z,8.40
2019-05-01T23:54:14.201Z,8.30
2019-05-01T23:56:43.797Z,8.30
2019-05-01T23:59:14.661Z,8.20
